createdAt,value
2023-02-11T00:00:56.505Z,32.23
2023-02-11T00:03:23.519Z,33.33
2023-02-11T00:06:05.947Z,32.37
2023-02-11T00:08:32.875Z,33.53
2023-02-11T00:11:00.330Z,34.47
2023-02-11T00:13:27.531Z,34.13
2023-02-11T00:15:55.441Z,33.23
2023-02-11T00:18:22.508Z,34.93
2023-02-11T00:20:49.522Z,33.27
2023-02-11T00:23:16.925Z,33.87
2023-02-11T00:25:45.315Z,30.50
2023-02-11T00:28:12.690Z,35.10
2023-02-11T00:30:39.957Z,33.93
2023-02-11T00:33:07.016Z,33.97
2023-02-11T00:35:34.112Z,32.03
2023-02-11T00:38:00.887Z,35.23
2023-02-11T00:40:28.173Z,34.40
2023-02-11T00:42:54.965Z,33.73
2023-02-11T00:45:21.812Z,30.40
2023-02-11T00:47:48.923Z,31.27
2023-02-11T00:50:15.785Z,34.17
2023-02-11T00:52:42.714Z,32.53
2023-02-11T00:55:09.770Z,34.63
2023-02-11T00:57:37.090Z,34.07
2023-02-11T01:00:06.399Z,35.33
2023-02-11T01:02:33.678Z,36.33
2023-02-11T01:05:01.010Z,33.93
2023-02-11T01:07:29.043Z,35.87
2023-02-11T01:09:56.245Z,36.50
2023-02-11T01:12:23.571Z,35.30
2023-02-11T01:14:50.402Z,34.30
2023-02-11T01:17:17.636Z,35.17
2023-02-11T01:19:44.457Z,36.80
2023-02-11T01:22:11.307Z,38.57
2023-02-11T01:24:38.457Z,37.87
2023-02-11T01:27:05.304Z,39.13
2023-02-11T01:29:32.256Z,38.87
2023-02-11T01:32:00.918Z,38.93
2023-02-11T01:34:28.411Z,37.93
2023-02-11T01:37:01.535Z,40.13
2023-02-11T01:39:28.775Z,39.43
2023-02-11T01:41:55.671Z,38.63
2023-02-11T01:44:32.295Z,38.13
2023-02-11T01:46:59.651Z,40.20
2023-02-11T01:49:32.941Z,39.33
2023-02-11T01:52:12.108Z,39.90
2023-02-11T01:55:02.176Z,40.53
2023-02-11T01:57:30.860Z,39.50
2023-02-11T02:00:03.908Z,39.57
2023-02-11T02:02:46.784Z,40.87
2023-02-11T02:05:32.349Z,40.97
2023-02-11T02:08:29.855Z,39.23
2023-02-11T02:11:00.550Z,41.50
2023-02-11T02:13:30.569Z,40.83
2023-02-11T02:16:03.535Z,39.37
2023-02-11T02:19:01.017Z,40.93
2023-02-11T02:22:10.469Z,41.57
2023-02-11T02:24:56.848Z,40.53
2023-02-11T02:27:36.174Z,41.00
2023-02-11T02:30:37.116Z,41.60
2023-02-11T02:33:23.845Z,42.27
2023-02-11T02:36:12.874Z,40.17
2023-02-11T02:39:20.700Z,42.57
2023-02-11T02:41:50.884Z,40.37
2023-02-11T02:44:18.935Z,38.53
2023-02-11T02:46:46.033Z,42.57
2023-02-11T02:49:16.175Z,41.00
2023-02-11T02:52:07.276Z,35.60
2023-02-11T02:54:34.019Z,39.97
2023-02-11T02:57:38.442Z,41.63
2023-02-11T03:00:23.300Z,39.90
2023-02-11T03:03:22.396Z,38.73
2023-02-11T03:06:31.946Z,40.93
2023-02-11T03:09:12.907Z,38.97
2023-02-11T03:11:40.469Z,34.50
2023-02-11T03:14:12.259Z,39.23
2023-02-11T03:16:40.074Z,40.53
2023-02-11T03:19:13.756Z,41.37
2023-02-11T03:21:43.649Z,39.97
2023-02-11T03:24:19.416Z,41.77
2023-02-11T03:26:56.520Z,40.57
2023-02-11T03:29:45.776Z,40.07
2023-02-11T03:32:18.488Z,41.13
2023-02-11T03:35:24.929Z,37.73
2023-02-11T03:37:59.833Z,41.00
2023-02-11T03:40:32.608Z,40.77
2023-02-11T03:42:59.349Z,39.63
2023-02-11T03:45:29.752Z,39.90
2023-02-11T03:48:04.433Z,39.47
2023-02-11T03:50:33.344Z,39.83
2023-02-11T03:53:02.832Z,40.47
2023-02-11T03:55:31.800Z,40.13
2023-02-11T03:57:58.630Z,39.50
2023-02-11T04:00:35.512Z,39.17
2023-02-11T04:03:03.107Z,34.23
2023-02-11T04:05:29.944Z,39.37
2023-02-11T04:07:56.994Z,40.03
2023-02-11T04:10:23.951Z,39.30
2023-02-11T04:12:51.063Z,38.37
2023-02-11T04:15:18.186Z,36.57
2023-02-11T04:17:44.989Z,37.70
2023-02-11T04:20:12.230Z,37.80
2023-02-11T04:22:39.531Z,35.80
2023-02-11T04:25:07.071Z,35.73
2023-02-11T04:27:34.010Z,34.70
2023-02-11T04:30:02.069Z,34.57
2023-02-11T04:32:28.864Z,35.33
2023-02-11T04:34:55.650Z,36.37
2023-02-11T04:37:22.787Z,34.80
2023-02-11T04:39:49.601Z,34.47
2023-02-11T04:42:16.422Z,34.67
2023-02-11T04:44:43.247Z,34.17
2023-02-11T04:47:10.319Z,35.07
2023-02-11T04:49:37.171Z,32.40
2023-02-11T04:52:04.197Z,32.93
2023-02-11T04:54:30.982Z,33.10
2023-02-11T04:56:57.812Z,32.17
2023-02-11T04:59:25.242Z,31.77
2023-02-11T05:01:52.047Z,32.33
2023-02-11T05:04:19.134Z,30.93
2023-02-11T05:06:45.976Z,31.97
2023-02-11T05:09:13.684Z,33.07
2023-02-11T05:11:40.605Z,32.97
2023-02-11T05:14:07.887Z,31.60
2023-02-11T05:16:35.194Z,31.97
2023-02-11T05:19:01.982Z,30.13
2023-02-11T05:21:29.287Z,33.17
2023-02-11T05:23:56.082Z,33.17
2023-02-11T05:26:22.887Z,32.80
2023-02-11T05:28:49.725Z,33.67
2023-02-11T05:31:17.181Z,30.77
2023-02-11T05:33:44.198Z,31.73
2023-02-11T05:36:13.606Z,31.33
2023-02-11T05:38:42.661Z,32.53
2023-02-11T05:41:10.471Z,31.13
2023-02-11T05:43:37.528Z,30.93
2023-02-11T05:46:04.992Z,32.27
2023-02-11T05:48:32.397Z,30.40
2023-02-11T05:50:59.697Z,30.80
2023-02-11T05:53:26.585Z,29.33
2023-02-11T05:55:53.594Z,31.37
2023-02-11T05:58:20.363Z,30.93
2023-02-11T06:00:47.381Z,30.80
2023-02-11T06:03:14.539Z,30.57
2023-02-11T06:05:43.800Z,29.97
2023-02-11T06:08:10.764Z,29.23
2023-02-11T06:10:37.563Z,31.30
2023-02-11T06:13:04.715Z,30.73
2023-02-11T06:15:31.805Z,28.53
2023-02-11T06:17:58.589Z,30.60
2023-02-11T06:20:25.432Z,29.63
2023-02-11T06:22:52.207Z,29.53
2023-02-11T06:25:19.139Z,30.20
2023-02-11T06:27:45.942Z,30.80
2023-02-11T06:30:13.325Z,31.17
2023-02-11T06:32:44.289Z,30.83
2023-02-11T06:35:12.688Z,31.60
2023-02-11T06:37:40.475Z,31.07
2023-02-11T06:40:07.814Z,29.90
2023-02-11T06:42:36.197Z,32.63
2023-02-11T06:45:06.223Z,30.60
2023-02-11T06:47:33.100Z,29.87
2023-02-11T06:49:59.968Z,31.97
2023-02-11T06:52:26.972Z,34.47
2023-02-11T06:54:53.806Z,32.13
2023-02-11T06:57:20.644Z,30.67
2023-02-11T06:59:47.803Z,33.47
2023-02-11T07:02:14.744Z,31.83
2023-02-11T07:04:41.651Z,30.67
2023-02-11T07:07:08.479Z,32.37
2023-02-11T07:09:35.273Z,35.70
2023-02-11T07:12:02.077Z,30.70
2023-02-11T07:14:29.321Z,35.63
2023-02-11T07:16:56.142Z,34.93
2023-02-11T07:19:22.915Z,34.50
2023-02-11T07:21:49.799Z,34.07
2023-02-11T07:24:16.992Z,33.30
2023-02-11T07:26:44.685Z,32.00
2023-02-11T07:29:11.663Z,33.80
2023-02-11T07:31:38.678Z,35.90
2023-02-11T07:34:05.698Z,35.67
2023-02-11T07:36:32.858Z,36.70
2023-02-11T07:39:00.309Z,38.33
2023-02-11T07:41:27.860Z,37.03
2023-02-11T07:43:55.085Z,38.90
2023-02-11T07:46:27.778Z,37.17
2023-02-11T07:48:55.379Z,36.60
2023-02-11T07:51:28.008Z,36.87
2023-02-11T07:53:56.197Z,33.93
2023-02-11T07:56:23.431Z,37.90
2023-02-11T07:58:51.061Z,36.73
2023-02-11T08:01:25.558Z,36.60
2023-02-11T08:03:53.677Z,37.47
2023-02-11T08:06:22.622Z,38.57
2023-02-11T08:08:49.828Z,39.20
2023-02-11T08:11:22.675Z,39.23
2023-02-11T08:13:50.268Z,38.87
2023-02-11T08:16:23.105Z,37.30
2023-02-11T08:18:51.250Z,37.87
2023-02-11T08:21:19.204Z,38.07
2023-02-11T08:23:46.861Z,37.93
2023-02-11T08:26:17.518Z,33.37
2023-02-11T08:28:46.122Z,39.03
2023-02-11T08:31:16.899Z,37.70
2023-02-11T08:33:44.624Z,32.03
2023-02-11T08:36:17.238Z,42.07
2023-02-11T08:38:44.421Z,39.53
2023-02-11T08:41:14.822Z,38.67
2023-02-11T08:43:42.685Z,37.80
2023-02-11T08:46:13.148Z,40.83
2023-02-11T08:48:40.292Z,40.90
2023-02-11T08:51:09.084Z,38.27
2023-02-11T08:53:36.659Z,40.10
2023-02-11T08:56:04.088Z,41.07
2023-02-11T08:58:30.903Z,41.80
2023-02-11T09:00:58.174Z,38.80
2023-02-11T09:03:25.221Z,40.13
2023-02-11T09:05:53.922Z,40.30
2023-02-11T09:08:21.252Z,38.50
2023-02-11T09:10:48.508Z,39.03
2023-02-11T09:13:16.972Z,37.20
2023-02-11T09:15:49.392Z,39.17
2023-02-11T09:18:16.645Z,41.33
2023-02-11T09:20:43.548Z,41.53
2023-02-11T09:23:10.907Z,41.37
2023-02-11T09:25:40.867Z,41.70
2023-02-11T09:28:09.170Z,40.20
2023-02-11T09:30:40.524Z,42.20
2023-02-11T09:33:07.756Z,43.63
2023-02-11T09:35:34.874Z,42.93
2023-02-11T09:38:01.694Z,41.40
2023-02-11T09:40:28.608Z,43.57
2023-02-11T09:43:11.899Z,39.03
2023-02-11T09:45:38.906Z,42.20
2023-02-11T09:48:18.802Z,43.57
2023-02-11T09:51:00.317Z,39.03
2023-02-11T09:53:29.881Z,42.40
2023-02-11T09:56:00.565Z,38.03
2023-02-11T09:58:34.634Z,40.40
2023-02-11T10:01:19.376Z,41.20
2023-02-11T10:03:56.677Z,43.17
2023-02-11T10:06:43.667Z,39.07
2023-02-11T10:09:17.604Z,39.33
2023-02-11T10:11:57.200Z,41.53
2023-02-11T10:14:55.404Z,36.97
2023-02-11T10:17:40.261Z,42.20
2023-02-11T10:20:22.274Z,39.43
2023-02-11T10:22:54.435Z,36.77
2023-02-11T10:25:37.421Z,38.03
2023-02-11T10:28:24.776Z,38.20
2023-02-11T10:31:00.304Z,34.10
2023-02-11T10:33:56.115Z,37.83
2023-02-11T10:36:27.906Z,38.13
2023-02-11T10:38:55.660Z,38.33
2023-02-11T10:41:34.548Z,37.13
2023-02-11T10:44:06.452Z,38.50
2023-02-11T10:46:37.945Z,37.90
2023-02-11T10:49:04.874Z,36.53
2023-02-11T10:51:37.670Z,35.23
2023-02-11T10:54:05.215Z,37.03
2023-02-11T10:56:35.579Z,36.53
2023-02-11T10:59:07.550Z,36.73
2023-02-11T11:01:54.202Z,35.80
2023-02-11T11:04:30.556Z,32.70
2023-02-11T11:07:17.365Z,38.47
2023-02-11T11:10:04.949Z,35.27
2023-02-11T11:12:46.649Z,34.37
2023-02-11T11:15:19.111Z,35.53
2023-02-11T11:17:46.595Z,34.43
2023-02-11T11:20:20.140Z,36.97
2023-02-11T11:22:49.382Z,38.43
2023-02-11T11:25:25.658Z,37.20
2023-02-11T11:27:59.486Z,37.40
2023-02-11T11:30:34.746Z,37.03
2023-02-11T11:33:02.288Z,35.57
2023-02-11T11:35:33.012Z,34.50
2023-02-11T11:38:03.895Z,34.73
2023-02-11T11:40:35.514Z,35.60
2023-02-11T11:43:23.075Z,35.17
2023-02-11T11:45:58.813Z,36.10
2023-02-11T11:48:35.203Z,34.37
2023-02-11T11:51:05.635Z,34.77
2023-02-11T11:53:42.980Z,35.67
2023-02-11T11:56:16.179Z,34.77
2023-02-11T11:58:43.397Z,35.30
2023-02-11T12:01:42.589Z,34.37
2023-02-11T12:04:47.039Z,33.27
2023-02-11T12:07:47.216Z,32.67
2023-02-11T12:10:38.858Z,32.20
2023-02-11T12:13:35.197Z,34.10
2023-02-11T12:16:23.732Z,34.13
2023-02-11T12:19:35.879Z,33.63
2023-02-11T12:22:11.499Z,33.77
2023-02-11T12:24:53.008Z,33.77
2023-02-11T12:27:44.257Z,31.77
2023-02-11T12:30:19.111Z,32.87
2023-02-11T12:32:51.832Z,33.37
2023-02-11T12:35:35.348Z,32.90
2023-02-11T12:38:08.421Z,31.27
2023-02-11T12:40:50.450Z,32.10
2023-02-11T12:43:42.526Z,31.53
2023-02-11T12:46:28.453Z,29.47
2023-02-11T12:49:21.536Z,29.73
2023-02-11T12:51:56.376Z,30.97
2023-02-11T12:54:40.179Z,31.00
2023-02-11T12:57:28.034Z,30.07
2023-02-11T13:00:06.990Z,29.93
2023-02-11T13:02:43.433Z,30.10
2023-02-11T13:05:31.750Z,27.57
2023-02-11T13:08:31.053Z,30.40
2023-02-11T13:11:29.567Z,30.13
2023-02-11T13:14:17.214Z,28.27
2023-02-11T13:16:46.964Z,29.10
2023-02-11T13:19:13.773Z,23.73
2023-02-11T13:22:01.857Z,26.37
2023-02-11T13:24:33.876Z,31.07
2023-02-11T13:27:28.468Z,29.57
2023-02-11T13:30:14.308Z,28.33
2023-02-11T13:32:56.276Z,27.87
2023-02-11T13:35:35.479Z,28.83
2023-02-11T13:38:18.245Z,26.17
2023-02-11T13:40:45.840Z,27.83
2023-02-11T13:43:25.432Z,26.43
2023-02-11T13:45:57.613Z,26.30
2023-02-11T13:48:45.526Z,27.17
2023-02-11T13:51:18.909Z,27.00
2023-02-11T13:53:48.279Z,27.00
2023-02-11T13:56:37.082Z,26.57
2023-02-11T13:59:27.550Z,26.53
2023-02-11T14:02:13.131Z,26.30
2023-02-11T14:05:20.168Z,23.63
2023-02-11T14:08:27.233Z,25.57
2023-02-11T14:11:16.719Z,26.17
2023-02-11T14:13:52.661Z,26.07
2023-02-11T14:16:36.964Z,25.27
2023-02-11T14:19:06.376Z,25.17
2023-02-11T14:21:38.808Z,26.20
2023-02-11T14:24:07.056Z,25.50
2023-02-11T14:26:33.834Z,25.47
2023-02-11T14:29:16.736Z,23.47
2023-02-11T14:32:05.845Z,26.00
2023-02-11T14:35:06.895Z,25.47
2023-02-11T14:37:39.708Z,25.20
2023-02-11T14:40:24.849Z,26.63
2023-02-11T14:42:54.014Z,26.07
2023-02-11T14:45:26.326Z,26.33
2023-02-11T14:48:14.716Z,25.37
2023-02-11T14:50:46.512Z,23.60
2023-02-11T14:53:21.450Z,25.97
2023-02-11T14:55:52.393Z,27.13
2023-02-11T14:58:26.923Z,26.57
2023-02-11T15:00:58.928Z,25.03
2023-02-11T15:03:28.551Z,25.80
2023-02-11T15:06:15.858Z,26.13
2023-02-11T15:08:47.318Z,27.30
2023-02-11T15:11:17.951Z,26.00
2023-02-11T15:13:48.125Z,24.90
2023-02-11T15:16:19.799Z,26.23
2023-02-11T15:19:01.288Z,27.43
2023-02-11T15:21:31.300Z,25.43
2023-02-11T15:23:59.859Z,25.07
2023-02-11T15:26:27.555Z,25.93
2023-02-11T15:28:56.107Z,26.47
2023-02-11T15:31:25.494Z,26.23
2023-02-11T15:33:53.489Z,25.90
2023-02-11T15:36:28.540Z,26.47
2023-02-11T15:39:31.141Z,26.33
2023-02-11T15:42:50.696Z,25.77
2023-02-11T15:45:28.704Z,25.30
2023-02-11T15:48:24.676Z,27.17
2023-02-11T15:51:01.563Z,26.10
2023-02-11T15:53:43.166Z,25.63
2023-02-11T15:56:13.401Z,25.27
2023-02-11T15:58:42.646Z,24.50
2023-02-11T16:01:12.845Z,25.37
2023-02-11T16:03:42.379Z,26.33
2023-02-11T16:06:42.784Z,22.90
2023-02-11T16:09:12.296Z,25.40
2023-02-11T16:11:48.318Z,26.40
2023-02-11T16:14:27.496Z,26.77
2023-02-11T16:17:00.008Z,26.07
2023-02-11T16:19:28.267Z,26.53
2023-02-11T16:21:58.046Z,26.47
2023-02-11T16:24:33.106Z,26.17
2023-02-11T16:27:06.789Z,26.73
2023-02-11T16:29:36.883Z,25.23
2023-02-11T16:32:18.969Z,26.27
2023-02-11T16:34:46.339Z,26.07
2023-02-11T16:37:13.524Z,26.37
2023-02-11T16:39:40.421Z,26.80
2023-02-11T16:42:07.668Z,28.67
2023-02-11T16:44:35.116Z,26.20
2023-02-11T16:47:03.409Z,31.90
2023-02-11T16:49:37.111Z,28.83
2023-02-11T16:52:12.537Z,27.17
2023-02-11T16:54:39.423Z,26.37
2023-02-11T16:57:18.049Z,26.70
2023-02-11T16:59:45.321Z,25.70
2023-02-11T17:02:27.904Z,28.80
2023-02-11T17:04:56.495Z,26.90
2023-02-11T17:07:23.338Z,29.93
2023-02-11T17:09:51.691Z,29.97
2023-02-11T17:12:20.052Z,30.23
2023-02-11T17:14:47.082Z,27.20
2023-02-11T17:17:14.599Z,28.53
2023-02-11T17:19:41.429Z,31.60
2023-02-11T17:22:08.322Z,30.93
2023-02-11T17:24:35.468Z,28.83
2023-02-11T17:27:02.504Z,29.10
2023-02-11T17:29:31.822Z,27.90
2023-02-11T17:31:58.743Z,26.53
2023-02-11T17:34:25.985Z,28.80
2023-02-11T17:36:52.827Z,28.53
2023-02-11T17:39:21.023Z,28.17
2023-02-11T17:41:48.364Z,32.57
2023-02-11T17:44:16.494Z,30.83
2023-02-11T17:46:43.927Z,36.83
2023-02-11T17:49:11.808Z,35.60
2023-02-11T17:51:40.320Z,28.40
2023-02-11T17:54:10.793Z,28.20
2023-02-11T17:56:38.097Z,29.20
2023-02-11T17:59:06.284Z,27.67
2023-02-11T18:01:34.471Z,30.17
2023-02-11T18:04:01.693Z,28.30
2023-02-11T18:06:29.253Z,30.90
2023-02-11T18:08:59.677Z,28.30
2023-02-11T18:11:27.991Z,32.63
2023-02-11T18:13:54.966Z,28.53
2023-02-11T18:16:23.607Z,30.00
2023-02-11T18:18:51.167Z,26.37
2023-02-11T18:21:20.151Z,29.20
2023-02-11T18:23:47.680Z,27.27
2023-02-11T18:26:16.293Z,28.27
2023-02-11T18:28:45.835Z,28.57
2023-02-11T18:31:14.159Z,30.43
2023-02-11T18:33:42.168Z,30.80
2023-02-11T18:36:12.210Z,30.57
2023-02-11T18:38:40.286Z,30.27
2023-02-11T18:41:08.264Z,30.33
2023-02-11T18:43:35.899Z,31.57
2023-02-11T18:46:07.568Z,32.33
2023-02-11T18:48:34.727Z,32.60
2023-02-11T18:51:01.596Z,34.30
2023-02-11T18:53:28.386Z,33.90
2023-02-11T18:55:55.514Z,31.93
2023-02-11T18:58:22.547Z,38.03
2023-02-11T19:00:50.494Z,31.47
2023-02-11T19:03:17.635Z,32.00
2023-02-11T19:05:47.406Z,30.97
2023-02-11T19:08:15.344Z,30.97
2023-02-11T19:10:44.520Z,33.97
2023-02-11T19:13:12.531Z,31.77
2023-02-11T19:15:46.705Z,33.73
2023-02-11T19:18:15.265Z,33.37
2023-02-11T19:20:43.888Z,31.03
2023-02-11T19:23:11.154Z,31.90
2023-02-11T19:25:44.576Z,32.47
2023-02-11T19:28:11.556Z,30.23
2023-02-11T19:30:38.529Z,31.97
2023-02-11T19:33:08.950Z,31.33
2023-02-11T19:35:36.833Z,33.67
2023-02-11T19:38:06.569Z,32.93
2023-02-11T19:40:33.624Z,32.27
2023-02-11T19:43:00.437Z,33.00
2023-02-11T19:45:27.422Z,35.10
2023-02-11T19:47:58.043Z,31.33
2023-02-11T19:50:25.236Z,34.10
2023-02-11T19:52:52.138Z,32.47
2023-02-11T19:55:19.126Z,34.33
2023-02-11T19:57:46.356Z,32.53
2023-02-11T20:00:13.666Z,31.43
2023-02-11T20:02:41.289Z,32.33
2023-02-11T20:05:11.484Z,34.37
2023-02-11T20:07:38.921Z,33.60
2023-02-11T20:10:06.878Z,34.10
2023-02-11T20:12:33.791Z,33.70
2023-02-11T20:15:00.854Z,34.57
2023-02-11T20:17:27.723Z,31.50
2023-02-11T20:19:55.218Z,33.43
2023-02-11T20:22:22.393Z,32.27
2023-02-11T20:24:49.415Z,33.50
2023-02-11T20:27:18.420Z,35.40
2023-02-11T20:29:46.979Z,36.13
2023-02-11T20:32:14.906Z,36.97
2023-02-11T20:34:42.151Z,34.77
2023-02-11T20:37:09.897Z,34.93
2023-02-11T20:39:41.097Z,35.27
2023-02-11T20:42:12.043Z,34.97
2023-02-11T20:44:39.454Z,34.77
2023-02-11T20:47:06.651Z,32.77
2023-02-11T20:49:33.761Z,32.00
2023-02-11T20:52:00.628Z,34.17
2023-02-11T20:54:27.673Z,32.57
2023-02-11T20:56:55.981Z,33.13
2023-02-11T20:59:25.435Z,34.67
2023-02-11T21:01:55.809Z,33.57
2023-02-11T21:04:29.727Z,34.20
2023-02-11T21:07:01.932Z,34.33
2023-02-11T21:09:32.239Z,31.97
2023-02-11T21:12:00.667Z,32.43
2023-02-11T21:14:28.429Z,31.43
2023-02-11T21:16:56.013Z,31.57
2023-02-11T21:19:23.233Z,31.30
2023-02-11T21:21:50.799Z,30.93
2023-02-11T21:24:18.112Z,28.87
2023-02-11T21:26:44.934Z,29.47
2023-02-11T21:29:12.153Z,30.50
2023-02-11T21:31:39.291Z,30.13
2023-02-11T21:34:07.001Z,30.00
2023-02-11T21:36:34.265Z,30.03
2023-02-11T21:39:01.952Z,31.00
2023-02-11T21:41:29.553Z,28.87
2023-02-11T21:43:56.948Z,38.77
2023-02-11T21:46:23.943Z,31.57
2023-02-11T21:48:51.035Z,29.30
2023-02-11T21:51:26.006Z,29.97
2023-02-11T21:54:03.032Z,28.37
2023-02-11T21:56:31.983Z,28.40
2023-02-11T21:59:00.287Z,26.83
2023-02-11T22:01:29.894Z,29.57
2023-02-11T22:03:57.161Z,28.27
2023-02-11T22:06:31.192Z,28.13
2023-02-11T22:08:58.997Z,28.43
2023-02-11T22:11:25.967Z,29.63
2023-02-11T22:13:56.699Z,28.33
2023-02-11T22:16:24.382Z,28.77
2023-02-11T22:18:51.616Z,28.97
2023-02-11T22:21:21.732Z,28.30
2023-02-11T22:23:49.255Z,29.60
2023-02-11T22:26:18.845Z,29.33
2023-02-11T22:28:46.762Z,29.80
2023-02-11T22:31:17.544Z,30.27
2023-02-11T22:33:45.110Z,29.70
2023-02-11T22:36:19.564Z,29.50
2023-02-11T22:38:46.793Z,30.43
2023-02-11T22:41:14.108Z,28.27
2023-02-11T22:43:43.071Z,27.93
2023-02-11T22:46:12.449Z,30.63
2023-02-11T22:48:39.443Z,29.50
2023-02-11T22:51:08.658Z,29.20
2023-02-11T22:53:36.277Z,27.70
2023-02-11T22:56:15.523Z,28.83
2023-02-11T22:58:42.896Z,28.27
2023-02-11T23:01:10.640Z,28.40
2023-02-11T23:03:37.557Z,28.77
2023-02-11T23:06:04.868Z,28.47
2023-02-11T23:08:33.153Z,29.20
2023-02-11T23:11:09.054Z,29.23
2023-02-11T23:13:38.569Z,28.87
2023-02-11T23:16:11.325Z,28.13
2023-02-11T23:18:40.453Z,28.50
2023-02-11T23:21:13.538Z,28.70
2023-02-11T23:23:40.314Z,29.80
2023-02-11T23:26:10.598Z,28.93
2023-02-11T23:28:37.809Z,28.97
2023-02-11T23:31:43.006Z,28.83
2023-02-11T23:34:10.032Z,29.00
2023-02-11T23:36:37.544Z,29.13
2023-02-11T23:39:05.284Z,27.97
2023-02-11T23:41:32.113Z,29.83
2023-02-11T23:43:59.032Z,28.30
2023-02-11T23:46:26.977Z,28.53
2023-02-11T23:48:54.269Z,30.50
2023-02-11T23:51:21.558Z,29.70
2023-02-11T23:53:51.665Z,29.43
2023-02-11T23:56:21.283Z,28.90
2023-02-11T23:58:50.226Z,28.00
